Time;durP1;ratioP1;P1;durP2;ratioP2;P2;SDS_P1;SDS_P2;PMS_P1;PMS_P2;Temp;Humidity;BMP_temperature;BMP_pressure;BME280_temperature;BME280_humidity;BME280_pressure;Samples;Min_cycle;Max_cycle;Signal;HPM_P1;HPM_P2
2023/12/01 00:02:21;;;;;;;13.67;13.17;;;5.40;99.90;;;;;;5064291;28;20196;-69
2023/12/01 00:04:48;;;;;;;13.47;12.97;;;5.40;99.90;;;;;;5064986;28;20654;-65
2023/12/01 00:07:14;;;;;;;13.67;13.17;;;5.40;99.90;;;;;;5066749;28;20199;-67
2023/12/01 00:09:41;;;;;;;13.50;13.00;;;5.40;99.90;;;;;;5065731;28;20837;-66
2023/12/01 00:12:08;;;;;;;12.77;12.27;;;5.40;99.90;;;;;;5068007;28;20237;-65
2023/12/01 00:14:35;;;;;;;13.47;12.87;;;5.50;99.90;;;;;;5064946;28;20229;-65
2023/12/01 00:17:02;;;;;;;12.97;12.47;;;5.50;99.90;;;;;;5068390;28;20219;-67
2023/12/01 00:19:30;;;;;;;14.17;13.57;;;5.50;99.90;;;;;;5071084;28;20200;-66
2023/12/01 00:21:57;;;;;;;14.50;13.90;;;5.50;99.90;;;;;;5056911;28;20690;-68
2023/12/01 00:24:24;;;;;;;14.00;13.50;;;5.40;99.90;;;;;;5062366;28;20220;-66
2023/12/01 00:26:51;;;;;;;14.07;13.50;;;5.40;99.90;;;;;;5056135;28;20200;-65
2023/12/01 00:29:17;;;;;;;14.37;13.77;;;5.30;99.90;;;;;;5061641;28;20207;-64
2023/12/01 00:31:44;;;;;;;14.23;13.63;;;5.40;99.90;;;;;;5054839;28;20209;-66
2023/12/01 00:34:11;;;;;;;13.93;13.43;;;5.40;99.90;;;;;;5053596;28;20204;-66
2023/12/01 00:36:39;;;;;;;14.63;14.03;;;5.50;99.90;;;;;;5052756;28;20200;-66
2023/12/01 00:39:07;;;;;;;13.68;13.18;;;5.50;99.90;;;;;;5056334;28;20211;-66
2023/12/01 00:41:34;;;;;;;14.93;14.33;;;5.50;99.90;;;;;;5058718;28;20227;-67
2023/12/01 00:44:00;;;;;;;15.37;14.77;;;5.50;99.90;;;;;;5061679;28;20207;-68
2023/12/01 00:46:27;;;;;;;15.65;15.00;;;5.30;99.90;;;;;;5055206;28;20200;-65
2023/12/01 00:48:54;;;;;;;15.10;14.50;;;5.20;99.90;;;;;;5059477;28;20200;-66
2023/12/01 00:51:21;;;;;;;15.53;14.93;;;5.20;99.90;;;;;;5063179;28;20200;-66
2023/12/01 00:53:49;;;;;;;15.50;14.90;;;5.10;99.90;;;;;;5060200;28;20212;-66
2023/12/01 00:56:16;;;;;;;15.18;14.57;;;4.90;99.90;;;;;;5074593;28;20231;-67
2023/12/01 00:58:43;;;;;;;16.43;15.73;;;4.90;99.90;;;;;;5074947;28;20584;-66
2023/12/01 01:01:10;;;;;;;15.13;14.52;;;4.90;99.90;;;;;;5075511;28;20209;-65
2023/12/01 01:03:36;;;;;;;16.23;15.63;;;4.80;99.90;;;;;;5059412;28;20226;-68
2023/12/01 01:06:04;;;;;;;16.70;16.07;;;4.80;99.90;;;;;;5058563;28;20227;-66
2023/12/01 01:08:31;;;;;;;17.02;16.33;;;4.70;99.90;;;;;;5056828;28;20199;-66
2023/12/01 01:10:59;;;;;;;17.37;16.67;;;4.70;99.90;;;;;;5059502;28;20210;-66
2023/12/01 01:13:28;;;;;;;16.43;15.77;;;4.70;99.90;;;;;;5056784;28;20211;-64
2023/12/01 01:15:55;;;;;;;14.73;14.13;;;4.60;99.90;;;;;;5062144;28;20803;-68
2023/12/01 01:18:22;;;;;;;15.23;14.63;;;4.70;99.90;;;;;;5071056;28;20231;-65
2023/12/01 01:20:49;;;;;;;16.67;15.97;;;4.80;99.90;;;;;;5078962;28;20235;-66
2023/12/01 01:23:17;;;;;;;16.80;16.13;;;4.80;99.90;;;;;;5078748;28;20204;-69
2023/12/01 01:25:44;;;;;;;15.97;15.27;;;4.80;99.90;;;;;;5080995;28;20294;-69
2023/12/01 01:28:14;;;;;;;15.50;14.90;;;4.80;99.90;;;;;;5082692;28;20234;-69
2023/12/01 01:30:42;;;;;;;15.13;14.53;;;4.80;99.90;;;;;;5084080;28;20208;-65
2023/12/01 01:33:09;;;;;;;14.40;13.83;;;4.90;99.90;;;;;;5081832;28;20326;-65
2023/12/01 01:35:36;;;;;;;14.80;14.20;;;4.90;99.90;;;;;;5080916;28;20234;-67
2023/12/01 01:38:03;;;;;;;14.50;13.93;;;5.00;99.90;;;;;;5075981;28;20246;-67
2023/12/01 01:40:29;;;;;;;14.63;14.02;;;5.10;99.90;;;;;;5077639;28;20215;-66
2023/12/01 01:43:01;;;;;;;14.33;13.83;;;5.10;99.90;;;;;;5078381;28;20222;-65
2023/12/01 01:45:29;;;;;;;14.40;13.90;;;5.10;99.90;;;;;;5077427;28;20296;-69
2023/12/01 01:47:56;;;;;;;14.90;14.30;;;5.10;99.90;;;;;;5075672;28;20640;-68
2023/12/01 01:50:24;;;;;;;15.37;14.77;;;5.30;99.90;;;;;;5075442;28;20296;-67
2023/12/01 01:52:53;;;;;;;15.93;15.33;;;5.20;99.90;;;;;;5074656;28;20234;-65
2023/12/01 01:55:21;;;;;;;16.83;16.13;;;5.20;99.90;;;;;;5072964;28;20259;-65
2023/12/01 01:57:49;;;;;;;16.45;15.75;;;5.10;99.90;;;;;;5071198;28;20831;-66
2023/12/01 02:00:18;;;;;;;17.00;16.30;;;5.00;99.90;;;;;;5070805;28;20211;-66
2023/12/01 02:02:47;;;;;;;16.10;15.47;;;4.90;99.90;;;;;;5070317;28;20210;-66
2023/12/01 02:05:14;;;;;;;17.30;16.60;;;4.70;99.90;;;;;;5069808;28;20246;-67
2023/12/01 02:07:41;;;;;;;18.50;17.80;;;4.50;99.90;;;;;;5074749;28;20203;-67
2023/12/01 02:10:15;;;;;;;17.40;16.70;;;4.30;99.90;;;;;;5076923;28;20258;-69
2023/12/01 02:12:42;;;;;;;16.37;15.77;;;4.30;99.90;;;;;;5076962;28;20294;-67
2023/12/01 02:15:10;;;;;;;17.33;16.63;;;4.40;99.90;;;;;;5079050;28;20231;-68
2023/12/01 02:17:39;;;;;;;16.30;15.67;;;4.40;99.90;;;;;;5076870;28;20227;-64
2023/12/01 02:20:14;;;;;;;16.40;15.73;;;4.40;99.90;;;;;;5070436;28;20222;-67
2023/12/01 02:22:45;;;;;;;15.97;15.37;;;4.40;99.90;;;;;;5068684;28;20314;-66
2023/12/01 02:25:13;;;;;;;15.83;15.23;;;4.40;99.90;;;;;;5076082;28;20249;-67
2023/12/01 02:27:40;;;;;;;16.20;15.60;;;4.50;99.90;;;;;;5075123;28;20237;-68
2023/12/01 02:30:12;;;;;;;15.33;14.73;;;4.50;99.90;;;;;;5076036;28;20276;-68
2023/12/01 02:32:40;;;;;;;16.60;15.95;;;4.60;99.90;;;;;;5076065;28;20294;-66
2023/12/01 02:35:09;;;;;;;16.23;15.53;;;4.60;99.90;;;;;;5077082;28;20228;-66
2023/12/01 02:37:36;;;;;;;16.17;15.57;;;4.60;99.90;;;;;;5074247;28;20219;-65
2023/12/01 02:40:14;;;;;;;15.47;14.87;;;4.50;99.90;;;;;;5069680;28;20303;-66
2023/12/01 02:42:46;;;;;;;16.13;15.52;;;4.50;99.90;;;;;;5064883;28;20220;-65
2023/12/01 02:45:12;;;;;;;15.20;14.60;;;4.50;99.90;;;;;;5071988;28;20250;-66
2023/12/01 02:47:39;;;;;;;16.13;15.53;;;4.50;99.90;;;;;;5071834;28;20219;-68
2023/12/01 02:50:09;;;;;;;17.75;16.92;;;4.50;99.90;;;;;;5071399;28;20261;-66
2023/12/01 02:52:36;;;;;;;16.40;15.70;;;4.40;99.90;;;;;;5052155;28;20210;-67
2023/12/01 02:55:04;;;;;;;15.53;14.93;;;4.50;99.90;;;;;;5052177;28;20228;-67
2023/12/01 02:57:31;;;;;;;15.83;15.23;;;4.50;99.90;;;;;;5051851;28;20220;-66
2023/12/01 02:59:58;;;;;;;15.27;14.67;;;4.60;99.90;;;;;;5051875;28;20208;-66
2023/12/01 03:02:28;;;;;;;15.45;14.85;;;4.60;99.90;;;;;;5051598;28;20215;-66
2023/12/01 03:04:55;;;;;;;15.70;15.10;;;4.60;99.90;;;;;;5051860;28;20220;-67
2023/12/01 03:07:21;;;;;;;15.03;14.43;;;4.60;99.90;;;;;;5051860;28;20212;-67
2023/12/01 03:09:48;;;;;;;14.80;14.20;;;4.70;99.90;;;;;;5051159;28;20215;-66
2023/12/01 03:12:16;;;;;;;16.50;15.80;;;4.80;99.90;;;;;;5051704;28;20639;-66
2023/12/01 03:14:43;;;;;;;15.37;14.70;;;4.80;99.90;;;;;;5051557;28;20234;-65
2023/12/01 03:17:09;;;;;;;15.67;15.07;;;4.80;99.90;;;;;;5051484;28;20705;-66
2023/12/01 03:19:36;;;;;;;15.77;15.03;;;4.80;99.90;;;;;;5051641;28;20232;-67
2023/12/01 03:22:03;;;;;;;13.80;13.30;;;4.80;99.90;;;;;;5052027;28;20665;-66
2023/12/01 03:24:30;;;;;;;14.53;14.03;;;4.80;99.90;;;;;;5051569;28;20277;-66
2023/12/01 03:26:57;;;;;;;14.50;13.93;;;4.80;99.90;;;;;;5051800;28;20215;-66
2023/12/01 03:29:25;;;;;;;14.57;13.97;;;4.70;99.90;;;;;;5051346;28;20210;-65
2023/12/01 03:31:52;;;;;;;14.83;14.23;;;4.80;99.90;;;;;;5046424;28;20670;-65
2023/12/01 03:34:18;;;;;;;15.73;15.13;;;4.80;99.90;;;;;;5051485;28;20212;-66
2023/12/01 03:36:45;;;;;;;15.63;15.03;;;4.80;99.90;;;;;;5051230;28;20210;-66
2023/12/01 03:39:12;;;;;;;15.10;14.50;;;4.80;99.90;;;;;;5050796;28;20603;-65
2023/12/01 03:41:38;;;;;;;14.67;14.17;;;4.80;99.90;;;;;;5048028;28;20212;-67
2023/12/01 03:44:05;;;;;;;15.50;14.90;;;4.80;99.90;;;;;;5051302;28;20567;-66
2023/12/01 03:46:33;;;;;;;15.20;14.60;;;4.80;99.90;;;;;;5051012;28;20662;-66
2023/12/01 03:49:00;;;;;;;14.37;13.87;;;4.80;99.90;;;;;;5050909;28;20212;-66
2023/12/01 03:51:27;;;;;;;14.83;14.23;;;4.80;99.90;;;;;;5050830;28;20223;-66
2023/12/01 03:53:54;;;;;;;14.03;13.53;;;4.80;99.90;;;;;;5050560;28;20227;-65
2023/12/01 03:56:21;;;;;;;15.70;15.10;;;4.80;99.90;;;;;;5050635;28;20228;-66
2023/12/01 03:58:47;;;;;;;14.30;13.80;;;4.80;99.90;;;;;;5050524;28;20289;-64
2023/12/01 04:01:14;;;;;;;14.83;14.27;;;4.70;99.90;;;;;;5051524;28;20234;-67
2023/12/01 04:03:43;;;;;;;14.87;14.27;;;4.70;99.90;;;;;;5050890;28;20257;-66
2023/12/01 04:06:09;;;;;;;15.03;14.43;;;4.60;99.90;;;;;;5051379;28;20228;-67
2023/12/01 04:08:36;;;;;;;13.97;13.47;;;4.70;99.90;;;;;;5051300;28;20218;-67
2023/12/01 04:11:03;;;;;;;15.50;14.90;;;4.70;99.90;;;;;;5058226;28;20216;-66
2023/12/01 04:13:29;;;;;;;15.37;14.77;;;4.70;99.90;;;;;;5051512;28;20208;-66
2023/12/01 04:15:56;;;;;;;15.70;15.10;;;4.60;99.90;;;;;;5051535;28;20654;-67
2023/12/01 04:18:23;;;;;;;14.93;14.33;;;4.60;99.90;;;;;;5050841;28;20227;-66
2023/12/01 04:20:51;;;;;;;14.97;14.37;;;4.60;99.90;;;;;;5050547;28;20307;-65
2023/12/01 04:23:17;;;;;;;15.37;14.77;;;4.70;99.90;;;;;;5056179;28;20208;-65
2023/12/01 04:25:46;;;;;;;13.50;13.00;;;4.70;99.90;;;;;;5057389;28;20234;-65
2023/12/01 04:28:14;;;;;;;15.40;14.80;;;4.70;99.90;;;;;;5057524;28;20627;-66
2023/12/01 04:30:41;;;;;;;13.47;12.97;;;4.70;99.90;;;;;;5057453;28;20713;-67
2023/12/01 04:33:08;;;;;;;14.20;13.60;;;4.70;99.90;;;;;;5057227;28;20211;-67
2023/12/01 04:35:36;;;;;;;13.60;13.10;;;4.70;99.90;;;;;;5057321;28;20315;-68
2023/12/01 04:38:05;;;;;;;13.30;12.80;;;4.70;99.90;;;;;;5056874;28;20732;-66
2023/12/01 04:40:32;;;;;;;13.80;13.30;;;4.70;99.90;;;;;;5057209;28;20207;-66
2023/12/01 04:43:01;;;;;;;14.33;13.83;;;4.70;99.90;;;;;;5057522;28;20222;-68
2023/12/01 04:45:28;;;;;;;13.97;13.47;;;4.60;99.90;;;;;;5057412;28;20259;-65
2023/12/01 04:47:56;;;;;;;13.97;13.47;;;4.60;99.90;;;;;;5057114;28;20621;-66
2023/12/01 04:50:24;;;;;;;12.93;12.43;;;4.60;99.90;;;;;;5057407;28;20218;-66
2023/12/01 04:52:53;;;;;;;12.75;12.25;;;4.70;99.90;;;;;;5053831;28;20212;-67
2023/12/01 04:55:24;;;;;;;12.23;11.73;;;4.60;99.90;;;;;;5061308;28;20636;-66
2023/12/01 04:57:50;;;;;;;13.40;12.90;;;4.60;99.90;;;;;;5063290;28;20356;-66
2023/12/01 05:00:21;;;;;;;13.23;12.73;;;4.50;99.90;;;;;;5059523;28;20232;-66
2023/12/01 05:02:50;;;;;;;13.90;13.30;;;4.60;99.90;;;;;;5078209;28;20206;-67
2023/12/01 05:05:18;;;;;;;12.03;11.63;;;4.60;99.90;;;;;;5078243;28;20231;-67
2023/12/01 05:07:49;;;;;;;12.83;12.33;;;4.50;99.90;;;;;;5080540;28;20681;-67
2023/12/01 05:10:16;;;;;;;12.23;11.73;;;4.50;99.90;;;;;;5083533;28;20211;-66
2023/12/01 05:12:46;;;;;;;12.10;11.70;;;4.50;99.90;;;;;;5081974;28;20203;-67
2023/12/01 05:15:18;;;;;;;12.97;12.47;;;4.50;99.90;;;;;;5077329;28;20227;-65
2023/12/01 05:17:47;;;;;;;14.03;13.43;;;4.60;99.90;;;;;;5079082;28;20660;-67
2023/12/01 05:20:17;;;;;;;12.93;12.43;;;4.50;99.90;;;;;;5078116;28;20230;-66
2023/12/01 05:22:45;;;;;;;12.10;11.60;;;4.50;99.90;;;;;;5078950;28;20681;-68
2023/12/01 05:25:13;;;;;;;12.60;12.10;;;4.50;99.90;;;;;;5084046;28;20749;-66
2023/12/01 05:27:49;;;;;;;13.57;12.97;;;4.50;99.90;;;;;;5073830;28;20218;-67
2023/12/01 05:30:17;;;;;;;12.90;12.40;;;4.50;99.90;;;;;;5083028;28;20213;-66
2023/12/01 05:32:47;;;;;;;13.40;12.90;;;4.50;99.90;;;;;;5084011;28;20237;-66
2023/12/01 05:35:15;;;;;;;13.30;12.80;;;4.40;99.90;;;;;;5079805;28;20235;-67
2023/12/01 05:37:47;;;;;;;14.33;13.73;;;4.50;99.90;;;;;;5077589;28;20966;-68
2023/12/01 05:40:16;;;;;;;14.03;13.53;;;4.50;99.90;;;;;;5081947;28;20237;-67
2023/12/01 05:42:44;;;;;;;13.33;12.83;;;4.50;99.90;;;;;;5083032;28;20709;-66
2023/12/01 05:45:12;;;;;;;13.90;13.33;;;4.40;99.90;;;;;;5076960;28;20234;-66
2023/12/01 05:47:43;;;;;;;14.10;13.53;;;4.50;99.90;;;;;;5069653;28;20583;-66
2023/12/01 05:50:21;;;;;;;13.43;12.93;;;4.40;99.90;;;;;;5076480;28;20214;-66
2023/12/01 05:52:48;;;;;;;13.90;13.40;;;4.40;99.90;;;;;;5075354;28;20203;-66
2023/12/01 05:55:17;;;;;;;13.20;12.70;;;4.30;99.90;;;;;;5073218;28;20231;-67
2023/12/01 05:57:45;;;;;;;14.47;13.87;;;4.30;99.90;;;;;;5064418;28;20215;-66
2023/12/01 06:00:15;;;;;;;14.63;14.03;;;4.20;99.90;;;;;;5068483;28;20236;-66
2023/12/01 06:02:43;;;;;;;14.20;13.70;;;4.10;99.90;;;;;;5067526;28;20211;-68
2023/12/01 06:05:12;;;;;;;14.60;14.00;;;4.00;99.90;;;;;;5076958;28;20247;-68
2023/12/01 06:07:41;;;;;;;14.90;14.30;;;3.90;99.90;;;;;;5072127;28;20207;-66
2023/12/01 06:10:09;;;;;;;14.93;14.33;;;3.90;99.90;;;;;;5076605;28;20658;-70
2023/12/01 06:12:38;;;;;;;14.97;14.37;;;3.80;99.90;;;;;;5073735;28;20210;-68
2023/12/01 06:15:06;;;;;;;14.53;14.00;;;3.70;99.90;;;;;;5073435;28;20281;-68
2023/12/01 06:17:35;;;;;;;15.17;14.57;;;3.70;99.90;;;;;;5068593;28;20211;-67
2023/12/01 06:20:01;;;;;;;15.27;14.67;;;3.80;99.90;;;;;;5068786;28;20223;-68
2023/12/01 06:22:28;;;;;;;15.63;15.03;;;3.70;99.90;;;;;;5073270;28;20218;-67
2023/12/01 06:24:55;;;;;;;16.10;15.47;;;3.70;99.90;;;;;;5073781;28;20238;-67
2023/12/01 06:27:22;;;;;;;15.43;14.83;;;3.70;99.90;;;;;;5068594;28;20207;-69
2023/12/01 06:29:49;;;;;;;16.43;15.83;;;3.60;99.90;;;;;;5075529;28;20209;-67
2023/12/01 06:32:16;;;;;;;16.23;15.53;;;3.60;99.90;;;;;;5072380;28;20223;-70
2023/12/01 06:34:44;;;;;;;15.10;14.50;;;3.60;99.90;;;;;;5072727;28;20924;-67
2023/12/01 06:37:11;;;;;;;15.57;14.97;;;3.60;99.90;;;;;;5068391;28;20226;-66
2023/12/01 06:39:38;;;;;;;14.57;13.97;;;3.60;99.90;;;;;;5062820;28;20716;-64
2023/12/01 06:42:05;;;;;;;14.63;14.03;;;3.60;99.90;;;;;;5072621;28;20203;-65
2023/12/01 06:44:34;;;;;;;15.83;15.23;;;3.60;99.90;;;;;;5072382;28;20600;-65
2023/12/01 06:47:01;;;;;;;15.43;14.83;;;3.50;99.90;;;;;;5069600;28;20571;-64
2023/12/01 06:49:27;;;;;;;15.67;15.07;;;3.50;99.90;;;;;;5072032;28;20207;-65
2023/12/01 06:51:57;;;;;;;15.57;14.97;;;3.50;99.90;;;;;;5078180;28;20215;-66
2023/12/01 06:54:25;;;;;;;14.73;14.13;;;3.50;99.90;;;;;;5070463;28;20231;-66
2023/12/01 06:56:51;;;;;;;13.83;13.33;;;3.60;99.90;;;;;;5072051;28;20257;-68
2023/12/01 06:59:18;;;;;;;14.20;13.60;;;3.70;99.90;;;;;;5071849;28;20599;-65
2023/12/01 07:01:45;;;;;;;14.27;13.67;;;3.70;99.90;;;;;;5072422;28;20227;-65
2023/12/01 07:04:13;;;;;;;14.50;13.90;;;3.70;99.90;;;;;;5069160;28;20214;-68
2023/12/01 07:06:46;;;;;;;15.90;15.20;;;3.70;99.90;;;;;;5073413;28;20265;-65
2023/12/01 07:09:17;;;;;;;14.43;13.93;;;3.70;99.90;;;;;;5058092;28;20207;-65
2023/12/01 07:11:46;;;;;;;14.55;13.95;;;3.70;99.90;;;;;;5049348;28;20265;-64
2023/12/01 07:14:13;;;;;;;16.13;15.43;;;3.70;99.90;;;;;;5056351;28;20227;-66
2023/12/01 07:16:41;;;;;;;14.50;13.90;;;3.60;99.90;;;;;;5055503;28;20210;-65
2023/12/01 07:19:08;;;;;;;14.33;13.80;;;3.70;99.90;;;;;;5059596;28;20228;-65
2023/12/01 07:21:35;;;;;;;14.37;13.80;;;3.70;99.90;;;;;;5062585;28;20210;-64
2023/12/01 07:24:04;;;;;;;14.63;14.03;;;3.60;99.90;;;;;;5059372;28;20196;-66
2023/12/01 07:26:33;;;;;;;13.75;13.25;;;3.50;99.90;;;;;;5060225;28;20210;-65
2023/12/01 07:29:00;;;;;;;14.37;13.77;;;3.50;99.90;;;;;;5062348;28;20306;-65
2023/12/01 07:31:27;;;;;;;15.40;14.80;;;3.50;99.90;;;;;;5058112;28;20277;-65
2023/12/01 07:33:54;;;;;;;16.83;16.13;;;3.40;99.90;;;;;;5057202;28;20204;-64
2023/12/01 07:36:20;;;;;;;17.90;17.20;;;3.20;99.90;;;;;;5068026;28;20777;-65
2023/12/01 07:38:47;;;;;;;17.17;16.47;;;3.10;99.90;;;;;;5069169;28;20203;-68
2023/12/01 07:41:14;;;;;;;15.93;15.33;;;3.10;99.90;;;;;;5072896;28;20207;-66
2023/12/01 07:43:42;;;;;;;16.13;15.50;;;3.20;99.90;;;;;;5073604;28;20207;-67
2023/12/01 07:46:09;;;;;;;15.53;14.93;;;3.20;99.90;;;;;;5071727;28;20231;-66
2023/12/01 07:48:36;;;;;;;15.25;14.65;;;3.30;99.90;;;;;;5071221;28;20763;-65
2023/12/01 07:51:04;;;;;;;15.13;14.52;;;3.40;99.90;;;;;;5068155;28;20207;-67
2023/12/01 07:53:31;;;;;;;16.80;16.07;;;3.50;99.90;;;;;;5071278;28;20950;-66
2023/12/01 07:55:59;;;;;;;16.08;15.38;;;3.50;99.90;;;;;;5073499;28;20235;-65
2023/12/01 07:58:26;;;;;;;16.77;16.03;;;3.50;99.90;;;;;;5077388;28;20302;-67
2023/12/01 08:00:55;;;;;;;15.80;15.10;;;3.40;99.90;;;;;;5073425;28;20598;-66
2023/12/01 08:03:22;;;;;;;14.80;14.20;;;3.40;99.90;;;;;;5074862;28;20208;-65
2023/12/01 08:05:49;;;;;;;14.57;13.93;;;3.50;99.90;;;;;;5083804;28;20234;-68
2023/12/01 08:08:15;;;;;;;15.63;15.03;;;3.60;99.90;;;;;;5083869;28;20270;-66
2023/12/01 08:10:42;;;;;;;14.83;14.23;;;3.50;99.90;;;;;;5076010;28;20200;-66
2023/12/01 08:13:10;;;;;;;14.80;14.20;;;3.40;99.90;;;;;;5066326;28;20208;-67
2023/12/01 08:15:37;;;;;;;14.10;13.50;;;3.40;99.90;;;;;;5064399;28;20220;-67
2023/12/01 08:18:05;;;;;;;14.17;13.63;;;3.50;99.90;;;;;;5068174;28;20567;-66
2023/12/01 08:20:32;;;;;;;13.73;13.23;;;3.70;99.90;;;;;;5066124;28;20227;-66
2023/12/01 08:22:59;;;;;;;12.90;12.40;;;3.70;99.90;;;;;;5059291;28;20214;-65
2023/12/01 08:25:27;;;;;;;13.27;12.77;;;3.80;99.90;;;;;;5060930;28;20219;-65
2023/12/01 08:27:54;;;;;;;13.33;12.83;;;3.90;99.90;;;;;;5063443;28;20211;-65
2023/12/01 08:30:21;;;;;;;13.20;12.70;;;4.00;99.90;;;;;;5062158;28;20222;-65
2023/12/01 08:32:48;;;;;;;13.37;12.87;;;4.00;99.90;;;;;;5075688;28;20199;-68
2023/12/01 08:35:22;;;;;;;13.87;13.37;;;4.10;99.90;;;;;;5068042;28;20230;-66
2023/12/01 08:37:51;;;;;;;14.60;14.00;;;4.10;99.90;;;;;;5070174;28;21146;-64
2023/12/01 08:40:17;;;;;;;14.90;14.37;;;4.10;99.90;;;;;;5066077;28;20615;-65
2023/12/01 08:42:44;;;;;;;14.70;14.10;;;4.20;99.90;;;;;;5061533;28;20207;-65
2023/12/01 08:45:11;;;;;;;13.50;13.00;;;4.10;99.90;;;;;;5058562;28;20230;-65
2023/12/01 08:47:39;;;;;;;12.63;12.13;;;4.10;99.90;;;;;;5059557;28;20204;-70
2023/12/01 08:50:07;;;;;;;13.50;13.00;;;4.10;99.90;;;;;;5055846;28;20202;-65
2023/12/01 08:52:35;;;;;;;13.00;12.50;;;4.20;99.90;;;;;;5055292;28;20220;-69
2023/12/01 08:55:02;;;;;;;12.43;11.93;;;4.40;99.90;;;;;;5058550;28;20230;-67
2023/12/01 08:57:29;;;;;;;12.67;12.17;;;4.30;99.90;;;;;;5066292;28;20227;-65
2023/12/01 08:59:55;;;;;;;13.50;13.00;;;4.40;99.90;;;;;;5065005;28;20256;-65
2023/12/01 09:02:22;;;;;;;13.53;13.03;;;4.40;99.90;;;;;;5064683;28;20203;-67
2023/12/01 09:04:49;;;;;;;13.80;13.30;;;4.20;99.90;;;;;;5056846;28;20687;-65
2023/12/01 09:07:15;;;;;;;14.15;13.55;;;4.10;99.90;;;;;;5054085;28;20204;-64
2023/12/01 09:09:44;;;;;;;14.68;14.07;;;4.00;99.90;;;;;;5060741;28;20208;-65
2023/12/01 09:12:10;;;;;;;15.70;15.00;;;3.90;99.90;;;;;;5061773;28;20273;-66
2023/12/01 09:14:37;;;;;;;17.05;16.35;;;3.80;99.90;;;;;;5066384;28;20235;-65
2023/12/01 09:17:04;;;;;;;15.43;14.82;;;3.60;99.90;;;;;;5076120;28;20211;-64
2023/12/01 09:19:30;;;;;;;15.87;15.20;;;3.60;99.90;;;;;;5081548;28;20208;-66
2023/12/01 09:21:57;;;;;;;15.25;14.65;;;3.60;99.90;;;;;;5080787;28;20207;-66
2023/12/01 09:24:24;;;;;;;16.43;15.77;;;3.50;99.90;;;;;;5080916;28;20230;-65
2023/12/01 09:26:52;;;;;;;17.03;16.33;;;3.50;99.90;;;;;;5080226;28;20669;-67
2023/12/01 09:29:19;;;;;;;16.60;16.00;;;3.50;99.90;;;;;;5073838;28;20227;-65
2023/12/01 09:31:47;;;;;;;16.85;16.15;;;3.50;99.90;;;;;;5065799;28;20211;-68
2023/12/01 09:34:14;;;;;;;16.05;15.38;;;3.60;99.90;;;;;;5077125;28;20203;-65
2023/12/01 09:36:43;;;;;;;16.97;16.27;;;3.50;99.90;;;;;;5080849;28;20211;-68
2023/12/01 09:39:09;;;;;;;15.30;14.70;;;3.50;99.90;;;;;;5074371;28;20208;-64
2023/12/01 09:41:37;;;;;;;15.93;15.27;;;3.50;99.90;;;;;;5080464;28;20227;-65
2023/12/01 09:44:06;;;;;;;17.17;16.47;;;3.60;99.90;;;;;;5075461;28;20580;-65
2023/12/01 09:46:34;;;;;;;16.87;16.17;;;3.60;99.90;;;;;;5072110;28;20211;-66
2023/12/01 09:49:04;;;;;;;16.90;16.20;;;3.60;99.90;;;;;;5075238;28;20207;-68
2023/12/01 09:51:34;;;;;;;16.90;16.20;;;3.60;99.90;;;;;;5068662;28;20232;-66
2023/12/01 09:54:01;;;;;;;16.00;15.40;;;3.60;99.90;;;;;;5074802;28;20600;-65
2023/12/01 09:56:28;;;;;;;17.57;16.87;;;3.60;99.90;;;;;;5067148;28;20702;-65
2023/12/01 09:58:56;;;;;;;17.70;17.00;;;3.50;99.90;;;;;;5074534;28;20655;-69
2023/12/01 10:01:24;;;;;;;18.00;17.20;;;3.50;99.90;;;;;;5069705;28;20227;-65
2023/12/01 10:03:51;;;;;;;17.70;16.90;;;3.40;99.90;;;;;;5071672;28;20321;-65
2023/12/01 10:06:18;;;;;;;17.55;16.75;;;3.50;99.90;;;;;;5063904;28;20227;-66
2023/12/01 10:08:45;;;;;;;17.47;16.77;;;3.60;99.90;;;;;;5066094;28;20215;-64
2023/12/01 10:11:21;;;;;;;16.80;16.10;;;3.60;99.90;;;;;;5062010;28;20234;-65
2023/12/01 10:13:52;;;;;;;15.73;15.13;;;3.70;99.90;;;;;;5072173;28;20218;-65
2023/12/01 10:16:19;;;;;;;15.33;14.73;;;3.70;99.90;;;;;;5054590;28;20224;-65
2023/12/01 10:18:59;;;;;;;15.20;14.60;;;3.80;99.90;;;;;;5052846;28;20196;-65
2023/12/01 10:21:43;;;;;;;16.23;15.53;;;3.80;99.90;;;;;;5054315;28;20604;-65
2023/12/01 10:24:15;;;;;;;15.67;15.07;;;3.90;99.90;;;;;;5058322;28;20196;-64
2023/12/01 10:26:42;;;;;;;15.27;14.67;;;4.10;99.90;;;;;;5052803;28;20203;-68
2023/12/01 10:29:23;;;;;;;16.40;15.73;;;4.20;99.90;;;;;;5055819;28;20231;-64
2023/12/01 10:31:50;;;;;;;15.67;15.07;;;4.30;99.90;;;;;;5064795;28;20222;-65
2023/12/01 10:34:19;;;;;;;16.00;15.30;;;4.30;99.90;;;;;;5058262;28;20216;-65
2023/12/01 10:36:47;;;;;;;14.50;13.90;;;4.40;99.90;;;;;;5056745;28;20211;-67
2023/12/01 10:39:17;;;;;;;14.83;14.23;;;4.40;99.90;;;;;;5062590;28;20204;-69
2023/12/01 10:41:45;;;;;;;15.83;15.23;;;4.40;99.90;;;;;;5058043;28;20215;-66
2023/12/01 10:44:16;;;;;;;14.97;14.37;;;4.40;99.90;;;;;;5045122;28;20199;-65
2023/12/01 10:46:45;;;;;;;14.13;13.63;;;4.40;99.90;;;;;;5050163;28;20275;-67
2023/12/01 10:49:14;;;;;;;15.00;14.40;;;4.50;99.90;;;;;;5048195;28;20273;-68
2023/12/01 10:51:43;;;;;;;16.03;15.43;;;4.50;99.90;;;;;;5047322;28;20192;-66
2023/12/01 10:54:11;;;;;;;15.17;14.57;;;4.60;99.90;;;;;;5054979;28;20218;-67
2023/12/01 10:56:46;;;;;;;15.97;15.37;;;4.60;99.90;;;;;;5051752;28;20209;-66
2023/12/01 10:59:19;;;;;;;15.13;14.53;;;4.50;99.90;;;;;;5055902;28;20207;-67
2023/12/01 11:01:48;;;;;;;15.60;15.00;;;4.50;99.90;;;;;;5055824;28;20220;-65
2023/12/01 11:04:22;;;;;;;15.63;15.03;;;4.50;99.90;;;;;;5055912;28;20208;-65
2023/12/01 11:07:03;;;;;;;15.87;15.27;;;4.60;99.90;;;;;;5060084;28;20663;-67
2023/12/01 11:09:42;;;;;;;17.90;17.10;;;4.50;99.90;;;;;;5060414;28;20726;-69
2023/12/01 11:12:18;;;;;;;17.27;16.57;;;4.40;99.90;;;;;;5053892;28;20196;-70
2023/12/01 11:14:50;;;;;;;16.90;16.20;;;4.50;99.90;;;;;;5054809;28;20231;-66
2023/12/01 11:17:17;;;;;;;16.80;16.10;;;4.50;99.90;;;;;;5058552;28;20207;-66
2023/12/01 11:19:44;;;;;;;15.90;15.20;;;4.50;99.90;;;;;;5056464;28;20246;-68
2023/12/01 11:22:27;;;;;;;15.20;14.60;;;4.50;99.90;;;;;;5054526;28;20663;-67
2023/12/01 11:24:56;;;;;;;16.33;15.43;;;4.50;99.90;;;;;;5052593;28;20649;-69
2023/12/01 11:27:25;;;;;;;15.80;15.17;;;4.50;99.90;;;;;;5052145;28;20200;-68
2023/12/01 11:30:06;;;;;;;15.50;14.80;;;4.60;99.90;;;;;;5062871;28;20208;-68
2023/12/01 11:32:34;;;;;;;15.40;14.80;;;4.60;99.90;;;;;;5054342;28;20282;-68
2023/12/01 11:35:04;;;;;;;16.47;15.70;;;4.70;99.90;;;;;;5055081;28;20235;-66
2023/12/01 11:38:04;;;;;;;16.27;15.57;;;4.70;99.90;;;;;;5057607;28;20200;-67
2023/12/01 11:40:40;;;;;;;17.70;17.00;;;4.70;99.90;;;;;;5059566;28;20318;-67
2023/12/01 11:43:08;;;;;;;18.07;17.27;;;4.70;99.90;;;;;;5058430;28;20283;-67
2023/12/01 11:45:41;;;;;;;17.23;16.53;;;4.60;99.90;;;;;;5065994;28;20228;-67
2023/12/01 11:48:09;;;;;;;18.53;17.73;;;4.50;99.90;;;;;;5061667;28;20287;-66
2023/12/01 11:50:39;;;;;;;16.67;15.97;;;4.40;99.90;;;;;;5065061;28;20196;-66
2023/12/01 11:53:12;;;;;;;17.27;16.57;;;4.50;99.90;;;;;;5061438;28;20293;-66
2023/12/01 11:55:39;;;;;;;17.27;16.57;;;4.50;99.90;;;;;;5064108;28;20251;-67
2023/12/01 11:58:06;;;;;;;17.03;16.33;;;4.50;99.90;;;;;;5056144;28;20216;-67
2023/12/01 12:00:35;;;;;;;16.20;15.50;;;4.60;99.90;;;;;;5061873;28;20212;-67
2023/12/01 12:03:01;;;;;;;16.30;15.63;;;4.60;99.90;;;;;;5074527;28;20294;-67
2023/12/01 12:05:28;;;;;;;16.23;15.60;;;4.60;99.90;;;;;;5074463;28;20234;-67
2023/12/01 12:07:56;;;;;;;17.53;16.73;;;4.70;99.90;;;;;;5069836;28;20204;-68
2023/12/01 12:10:24;;;;;;;17.87;17.07;;;4.80;99.90;;;;;;5075492;28;20662;-66
2023/12/01 12:12:50;;;;;;;17.27;16.57;;;4.70;99.90;;;;;;5070884;28;20670;-65
2023/12/01 12:15:17;;;;;;;15.60;14.93;;;4.70;99.90;;;;;;5070886;28;20235;-66
2023/12/01 12:17:44;;;;;;;15.97;15.30;;;4.70;99.90;;;;;;5056876;28;20211;-65
2023/12/01 12:20:11;;;;;;;16.70;16.00;;;4.70;99.90;;;;;;5068395;28;20203;-65
2023/12/01 12:22:39;;;;;;;16.10;15.50;;;4.70;99.90;;;;;;5062518;28;20600;-67
2023/12/01 12:25:10;;;;;;;16.97;16.27;;;4.80;99.90;;;;;;5068256;28;20225;-66
2023/12/01 12:27:40;;;;;;;16.03;15.43;;;4.80;99.90;;;;;;5068223;28;20222;-64
2023/12/01 12:30:09;;;;;;;16.70;16.00;;;4.80;99.90;;;;;;5058071;28;20206;-65
2023/12/01 12:32:36;;;;;;;15.57;14.97;;;4.80;99.90;;;;;;5062390;28;20199;-66
2023/12/01 12:35:03;;;;;;;15.57;14.97;;;4.80;99.90;;;;;;5065483;28;20756;-68
2023/12/01 12:37:30;;;;;;;15.90;15.20;;;4.80;99.90;;;;;;5055532;28;20199;-66
2023/12/01 12:39:57;;;;;;;15.37;14.77;;;4.90;99.90;;;;;;5053593;28;20210;-66
2023/12/01 12:42:24;;;;;;;15.37;14.77;;;4.90;99.90;;;;;;5056025;28;20237;-69